sensor_id;sensor_type;location;lat;lon;timestamp;P1;durP1;ratioP1;P2;durP2;ratioP2
31336;SDS011;22846;42.654;23.314;2023-03-01T00:01:28;7.03;;;4.95;;
31336;SDS011;22846;42.654;23.314;2023-03-01T00:03:55;7.18;;;4.93;;
31336;SDS011;22846;42.654;23.314;2023-03-01T00:06:21;6.47;;;4.80;;
31336;SDS011;22846;42.654;23.314;2023-03-01T00:08:46;5.63;;;4.35;;
31336;SDS011;22846;42.654;23.314;2023-03-01T00:11:14;5.53;;;4.53;;
31336;SDS011;22846;42.654;23.314;2023-03-01T00:13:40;6.40;;;4.45;;
31336;SDS011;22846;42.654;23.314;2023-03-01T00:16:07;6.13;;;4.90;;
31336;SDS011;22846;42.654;23.314;2023-03-01T00:18:35;5.30;;;4.35;;
31336;SDS011;22846;42.654;23.314;2023-03-01T00:21:00;5.40;;;4.07;;
31336;SDS011;22846;42.654;23.314;2023-03-01T00:23:26;5.43;;;4.60;;
31336;SDS011;22846;42.654;23.314;2023-03-01T00:25:52;4.70;;;3.80;;
31336;SDS011;22846;42.654;23.314;2023-03-01T00:28:17;5.25;;;4.32;;
31336;SDS011;22846;42.654;23.314;2023-03-01T00:30:43;5.82;;;4.20;;
31336;SDS011;22846;42.654;23.314;2023-03-01T00:33:08;5.72;;;4.45;;
31336;SDS011;22846;42.654;23.314;2023-03-01T00:35:34;4.57;;;3.95;;
31336;SDS011;22846;42.654;23.314;2023-03-01T00:38:00;5.72;;;4.10;;
31336;SDS011;22846;42.654;23.314;2023-03-01T00:40:27;4.80;;;4.03;;
31336;SDS011;22846;42.654;23.314;2023-03-01T00:42:53;5.63;;;4.30;;
31336;SDS011;22846;42.654;23.314;2023-03-01T00:45:19;4.75;;;3.72;;
31336;SDS011;22846;42.654;23.314;2023-03-01T00:47:44;4.57;;;3.70;;
31336;SDS011;22846;42.654;23.314;2023-03-01T00:50:10;4.75;;;3.92;;
31336;SDS011;22846;42.654;23.314;2023-03-01T00:52:36;4.97;;;4.03;;
31336;SDS011;22846;42.654;23.314;2023-03-01T00:55:02;4.63;;;3.53;;
31336;SDS011;22846;42.654;23.314;2023-03-01T00:57:29;4.43;;;3.35;;
31336;SDS011;22846;42.654;23.314;2023-03-01T00:59:54;4.00;;;3.30;;
31336;SDS011;22846;42.654;23.314;2023-03-01T01:02:20;4.22;;;3.70;;
31336;SDS011;22846;42.654;23.314;2023-03-01T01:04:46;3.67;;;3.28;;
31336;SDS011;22846;42.654;23.314;2023-03-01T01:07:11;4.53;;;3.60;;
31336;SDS011;22846;42.654;23.314;2023-03-01T01:09:37;3.92;;;3.35;;
31336;SDS011;22846;42.654;23.314;2023-03-01T01:12:03;3.25;;;2.85;;
31336;SDS011;22846;42.654;23.314;2023-03-01T01:14:29;4.25;;;3.15;;
31336;SDS011;22846;42.654;23.314;2023-03-01T01:16:54;3.78;;;3.20;;
31336;SDS011;22846;42.654;23.314;2023-03-01T01:19:20;3.67;;;2.88;;
31336;SDS011;22846;42.654;23.314;2023-03-01T01:21:46;3.53;;;3.00;;
31336;SDS011;22846;42.654;23.314;2023-03-01T01:24:13;3.35;;;2.63;;
31336;SDS011;22846;42.654;23.314;2023-03-01T01:26:40;3.47;;;2.88;;
31336;SDS011;22846;42.654;23.314;2023-03-01T01:29:06;3.40;;;2.90;;
31336;SDS011;22846;42.654;23.314;2023-03-01T01:31:33;3.35;;;2.78;;
31336;SDS011;22846;42.654;23.314;2023-03-01T01:34:00;4.72;;;3.03;;
31336;SDS011;22846;42.654;23.314;2023-03-01T01:36:27;3.00;;;2.70;;
31336;SDS011;22846;42.654;23.314;2023-03-01T01:38:52;4.55;;;3.00;;
31336;SDS011;22846;42.654;23.314;2023-03-01T01:41:18;2.95;;;2.42;;
31336;SDS011;22846;42.654;23.314;2023-03-01T01:43:46;3.10;;;2.78;;
31336;SDS011;22846;42.654;23.314;2023-03-01T01:46:32;3.38;;;2.78;;
31336;SDS011;22846;42.654;23.314;2023-03-01T01:49:02;2.83;;;2.55;;
31336;SDS011;22846;42.654;23.314;2023-03-01T01:51:37;2.95;;;2.47;;
31336;SDS011;22846;42.654;23.314;2023-03-01T01:56:37;2.38;;;2.17;;
31336;SDS011;22846;42.654;23.314;2023-03-01T01:59:07;2.47;;;2.28;;
31336;SDS011;22846;42.654;23.314;2023-03-01T02:01:34;2.78;;;2.28;;
31336;SDS011;22846;42.654;23.314;2023-03-01T02:03:59;2.72;;;2.28;;
31336;SDS011;22846;42.654;23.314;2023-03-01T02:06:36;2.45;;;2.17;;
31336;SDS011;22846;42.654;23.314;2023-03-01T02:09:11;2.67;;;2.05;;
31336;SDS011;22846;42.654;23.314;2023-03-01T02:11:39;2.63;;;2.22;;
31336;SDS011;22846;42.654;23.314;2023-03-01T02:14:06;2.63;;;2.22;;
31336;SDS011;22846;42.654;23.314;2023-03-01T02:16:31;2.65;;;2.30;;
31336;SDS011;22846;42.654;23.314;2023-03-01T02:18:57;2.45;;;2.10;;
31336;SDS011;22846;42.654;23.314;2023-03-01T02:23:58;2.20;;;2.00;;
31336;SDS011;22846;42.654;23.314;2023-03-01T02:29:10;2.22;;;1.90;;
31336;SDS011;22846;42.654;23.314;2023-03-01T02:31:35;2.42;;;2.00;;
31336;SDS011;22846;42.654;23.314;2023-03-01T02:34:11;2.22;;;1.90;;
31336;SDS011;22846;42.654;23.314;2023-03-01T02:36:41;2.23;;;1.77;;
31336;SDS011;22846;42.654;23.314;2023-03-01T02:39:12;2.00;;;1.67;;
31336;SDS011;22846;42.654;23.314;2023-03-01T02:41:42;2.30;;;2.00;;
31336;SDS011;22846;42.654;23.314;2023-03-01T02:44:12;2.00;;;1.80;;
31336;SDS011;22846;42.654;23.314;2023-03-01T02:46:47;2.00;;;1.77;;
31336;SDS011;22846;42.654;23.314;2023-03-01T02:49:28;1.88;;;1.67;;
31336;SDS011;22846;42.654;23.314;2023-03-01T02:57:13;2.13;;;1.90;;
31336;SDS011;22846;42.654;23.314;2023-03-01T02:59:39;2.42;;;2.00;;
31336;SDS011;22846;42.654;23.314;2023-03-01T03:02:08;1.88;;;1.70;;
31336;SDS011;22846;42.654;23.314;2023-03-01T03:04:45;1.70;;;1.60;;
31336;SDS011;22846;42.654;23.314;2023-03-01T03:07:11;5.63;;;1.98;;
31336;SDS011;22846;42.654;23.314;2023-03-01T03:09:36;1.70;;;1.58;;
31336;SDS011;22846;42.654;23.314;2023-03-01T03:12:02;1.60;;;1.48;;
31336;SDS011;22846;42.654;23.314;2023-03-01T03:14:27;1.58;;;1.48;;
31336;SDS011;22846;42.654;23.314;2023-03-01T03:16:52;1.60;;;1.50;;
31336;SDS011;22846;42.654;23.314;2023-03-01T03:19:18;1.63;;;1.52;;
31336;SDS011;22846;42.654;23.314;2023-03-01T03:21:44;2.10;;;1.48;;
31336;SDS011;22846;42.654;23.314;2023-03-01T03:24:09;1.60;;;1.50;;
31336;SDS011;22846;42.654;23.314;2023-03-01T03:26:35;1.40;;;1.30;;
31336;SDS011;22846;42.654;23.314;2023-03-01T03:29:02;2.22;;;1.60;;
31336;SDS011;22846;42.654;23.314;2023-03-01T03:31:27;1.88;;;1.42;;
31336;SDS011;22846;42.654;23.314;2023-03-01T03:33:52;1.48;;;1.35;;
31336;SDS011;22846;42.654;23.314;2023-03-01T03:36:19;1.83;;;1.50;;
31336;SDS011;22846;42.654;23.314;2023-03-01T03:38:46;2.03;;;1.65;;
31336;SDS011;22846;42.654;23.314;2023-03-01T03:41:12;1.45;;;1.35;;
31336;SDS011;22846;42.654;23.314;2023-03-01T03:43:38;1.50;;;1.40;;
31336;SDS011;22846;42.654;23.314;2023-03-01T03:46:05;1.40;;;1.30;;
31336;SDS011;22846;42.654;23.314;2023-03-01T03:48:34;1.88;;;1.45;;
31336;SDS011;22846;42.654;23.314;2023-03-01T03:51:01;1.60;;;1.38;;
31336;SDS011;22846;42.654;23.314;2023-03-01T03:53:27;1.13;;;1.02;;
31336;SDS011;22846;42.654;23.314;2023-03-01T03:55:53;1.30;;;1.20;;
31336;SDS011;22846;42.654;23.314;2023-03-01T03:58:20;1.38;;;1.27;;
31336;SDS011;22846;42.654;23.314;2023-03-01T04:00:50;1.35;;;1.20;;
31336;SDS011;22846;42.654;23.314;2023-03-01T04:03:17;1.48;;;1.20;;
31336;SDS011;22846;42.654;23.314;2023-03-01T04:05:44;1.70;;;1.17;;
31336;SDS011;22846;42.654;23.314;2023-03-01T04:08:10;1.20;;;1.10;;
31336;SDS011;22846;42.654;23.314;2023-03-01T04:10:37;1.10;;;1.00;;
31336;SDS011;22846;42.654;23.314;2023-03-01T04:13:04;1.27;;;1.17;;
31336;SDS011;22846;42.654;23.314;2023-03-01T04:15:30;1.30;;;1.10;;
31336;SDS011;22846;42.654;23.314;2023-03-01T04:17:57;1.23;;;1.00;;
31336;SDS011;22846;42.654;23.314;2023-03-01T04:20:25;1.10;;;1.00;;
31336;SDS011;22846;42.654;23.314;2023-03-01T04:23:00;0.85;;;0.85;;
31336;SDS011;22846;42.654;23.314;2023-03-01T04:25:42;0.90;;;0.90;;
31336;SDS011;22846;42.654;23.314;2023-03-01T04:28:11;1.20;;;0.90;;
31336;SDS011;22846;42.654;23.314;2023-03-01T04:30:37;1.02;;;0.93;;
31336;SDS011;22846;42.654;23.314;2023-03-01T04:33:07;0.80;;;0.80;;
31336;SDS011;22846;42.654;23.314;2023-03-01T04:35:34;0.93;;;0.88;;
31336;SDS011;22846;42.654;23.314;2023-03-01T04:38:00;1.95;;;0.90;;
31336;SDS011;22846;42.654;23.314;2023-03-01T04:40:26;0.80;;;0.80;;
31336;SDS011;22846;42.654;23.314;2023-03-01T04:42:51;0.88;;;0.80;;
31336;SDS011;22846;42.654;23.314;2023-03-01T04:45:17;0.82;;;0.82;;
31336;SDS011;22846;42.654;23.314;2023-03-01T04:47:43;1.00;;;0.90;;
31336;SDS011;22846;42.654;23.314;2023-03-01T04:50:10;0.93;;;0.75;;
31336;SDS011;22846;42.654;23.314;2023-03-01T04:52:36;0.70;;;0.70;;
31336;SDS011;22846;42.654;23.314;2023-03-01T04:55:02;0.93;;;0.80;;
31336;SDS011;22846;42.654;23.314;2023-03-01T04:57:28;2.17;;;0.80;;
31336;SDS011;22846;42.654;23.314;2023-03-01T04:59:54;1.27;;;0.90;;
31336;SDS011;22846;42.654;23.314;2023-03-01T05:02:20;1.23;;;0.85;;
31336;SDS011;22846;42.654;23.314;2023-03-01T05:04:45;0.63;;;0.63;;
31336;SDS011;22846;42.654;23.314;2023-03-01T05:07:11;0.73;;;0.70;;
31336;SDS011;22846;42.654;23.314;2023-03-01T05:09:38;0.60;;;0.60;;
31336;SDS011;22846;42.654;23.314;2023-03-01T05:12:03;0.70;;;0.65;;
31336;SDS011;22846;42.654;23.314;2023-03-01T05:14:29;0.75;;;0.70;;
31336;SDS011;22846;42.654;23.314;2023-03-01T05:16:55;0.60;;;0.60;;
31336;SDS011;22846;42.654;23.314;2023-03-01T05:19:28;0.73;;;0.70;;
31336;SDS011;22846;42.654;23.314;2023-03-01T05:21:56;0.82;;;0.70;;
31336;SDS011;22846;42.654;23.314;2023-03-01T05:24:32;0.73;;;0.73;;
31336;SDS011;22846;42.654;23.314;2023-03-01T05:26:59;0.57;;;0.57;;
31336;SDS011;22846;42.654;23.314;2023-03-01T05:29:26;0.50;;;0.50;;
31336;SDS011;22846;42.654;23.314;2023-03-01T05:31:54;0.60;;;0.60;;
31336;SDS011;22846;42.654;23.314;2023-03-01T05:34:27;0.63;;;0.60;;
31336;SDS011;22846;42.654;23.314;2023-03-01T05:36:55;0.50;;;0.50;;
31336;SDS011;22846;42.654;23.314;2023-03-01T05:39:21;0.47;;;0.47;;
31336;SDS011;22846;42.654;23.314;2023-03-01T05:41:48;2.47;;;0.70;;
31336;SDS011;22846;42.654;23.314;2023-03-01T05:44:17;1.15;;;0.80;;
31336;SDS011;22846;42.654;23.314;2023-03-01T05:46:42;0.70;;;0.70;;
31336;SDS011;22846;42.654;23.314;2023-03-01T05:49:08;2.22;;;0.75;;
31336;SDS011;22846;42.654;23.314;2023-03-01T05:51:34;8.30;;;1.08;;
31336;SDS011;22846;42.654;23.314;2023-03-01T05:53:59;9.30;;;1.20;;
31336;SDS011;22846;42.654;23.314;2023-03-01T05:56:25;2.25;;;0.82;;
31336;SDS011;22846;42.654;23.314;2023-03-01T05:58:50;2.78;;;0.80;;
31336;SDS011;22846;42.654;23.314;2023-03-01T06:01:15;4.40;;;0.95;;
31336;SDS011;22846;42.654;23.314;2023-03-01T06:03:41;1.67;;;0.80;;
31336;SDS011;22846;42.654;23.314;2023-03-01T06:06:06;1.65;;;0.80;;
31336;SDS011;22846;42.654;23.314;2023-03-01T06:08:32;1.30;;;0.80;;
31336;SDS011;22846;42.654;23.314;2023-03-01T06:10:57;2.67;;;0.63;;
31336;SDS011;22846;42.654;23.314;2023-03-01T06:13:23;3.08;;;1.00;;
31336;SDS011;22846;42.654;23.314;2023-03-01T06:15:49;2.63;;;1.00;;
31336;SDS011;22846;42.654;23.314;2023-03-01T06:18:14;5.47;;;1.10;;
31336;SDS011;22846;42.654;23.314;2023-03-01T06:20:40;6.20;;;0.90;;
31336;SDS011;22846;42.654;23.314;2023-03-01T06:23:06;8.38;;;1.45;;
31336;SDS011;22846;42.654;23.314;2023-03-01T06:25:31;12.18;;;1.60;;
31336;SDS011;22846;42.654;23.314;2023-03-01T06:27:57;34.47;;;16.77;;
31336;SDS011;22846;42.654;23.314;2023-03-01T06:30:23;43.25;;;24.50;;
31336;SDS011;22846;42.654;23.314;2023-03-01T06:32:50;37.65;;;22.63;;
31336;SDS011;22846;42.654;23.314;2023-03-01T06:35:16;36.75;;;17.55;;
31336;SDS011;22846;42.654;23.314;2023-03-01T06:37:43;30.35;;;18.40;;
31336;SDS011;22846;42.654;23.314;2023-03-01T06:40:09;26.15;;;15.75;;
31336;SDS011;22846;42.654;23.314;2023-03-01T06:42:37;21.83;;;15.75;;
31336;SDS011;22846;42.654;23.314;2023-03-01T06:45:04;29.17;;;16.67;;
31336;SDS011;22846;42.654;23.314;2023-03-01T06:47:31;30.10;;;17.00;;
31336;SDS011;22846;42.654;23.314;2023-03-01T06:49:58;24.05;;;14.85;;
31336;SDS011;22846;42.654;23.314;2023-03-01T06:52:24;25.75;;;14.65;;
31336;SDS011;22846;42.654;23.314;2023-03-01T06:54:49;24.13;;;13.90;;
31336;SDS011;22846;42.654;23.314;2023-03-01T06:57:15;21.73;;;14.05;;
31336;SDS011;22846;42.654;23.314;2023-03-01T06:59:40;20.95;;;12.45;;
31336;SDS011;22846;42.654;23.314;2023-03-01T07:02:06;20.92;;;13.82;;
31336;SDS011;22846;42.654;23.314;2023-03-01T07:04:34;25.55;;;11.63;;
31336;SDS011;22846;42.654;23.314;2023-03-01T07:07:00;17.65;;;11.65;;
31336;SDS011;22846;42.654;23.314;2023-03-01T07:09:26;17.48;;;11.27;;
31336;SDS011;22846;42.654;23.314;2023-03-01T07:11:51;15.73;;;11.05;;
31336;SDS011;22846;42.654;23.314;2023-03-01T07:14:16;18.40;;;10.70;;
31336;SDS011;22846;42.654;23.314;2023-03-01T07:16:42;15.65;;;10.15;;
31336;SDS011;22846;42.654;23.314;2023-03-01T07:19:07;18.10;;;10.77;;
31336;SDS011;22846;42.654;23.314;2023-03-01T07:21:33;15.70;;;10.35;;
31336;SDS011;22846;42.654;23.314;2023-03-01T07:23:58;19.10;;;9.90;;
31336;SDS011;22846;42.654;23.314;2023-03-01T07:26:23;14.02;;;9.43;;
31336;SDS011;22846;42.654;23.314;2023-03-01T07:28:49;15.18;;;9.40;;
31336;SDS011;22846;42.654;23.314;2023-03-01T07:31:14;16.23;;;9.20;;
31336;SDS011;22846;42.654;23.314;2023-03-01T07:33:40;13.77;;;8.48;;
31336;SDS011;22846;42.654;23.314;2023-03-01T07:36:06;14.98;;;8.65;;
31336;SDS011;22846;42.654;23.314;2023-03-01T07:38:32;19.00;;;8.57;;
31336;SDS011;22846;42.654;23.314;2023-03-01T07:40:58;12.18;;;8.13;;
31336;SDS011;22846;42.654;23.314;2023-03-01T07:43:25;13.40;;;8.43;;
31336;SDS011;22846;42.654;23.314;2023-03-01T07:45:51;14.40;;;8.13;;
31336;SDS011;22846;42.654;23.314;2023-03-01T07:48:16;13.88;;;8.10;;
31336;SDS011;22846;42.654;23.314;2023-03-01T07:50:42;15.35;;;8.00;;
31336;SDS011;22846;42.654;23.314;2023-03-01T07:53:08;14.80;;;7.70;;
31336;SDS011;22846;42.654;23.314;2023-03-01T07:55:34;16.17;;;7.00;;
31336;SDS011;22846;42.654;23.314;2023-03-01T07:58:00;13.65;;;6.80;;
31336;SDS011;22846;42.654;23.314;2023-03-01T08:00:26;14.55;;;7.03;;
31336;SDS011;22846;42.654;23.314;2023-03-01T08:02:51;7.53;;;4.35;;
31336;SDS011;22846;42.654;23.314;2023-03-01T08:05:16;9.13;;;5.22;;
31336;SDS011;22846;42.654;23.314;2023-03-01T08:07:42;9.85;;;5.85;;
31336;SDS011;22846;42.654;23.314;2023-03-01T08:10:07;11.75;;;5.50;;
31336;SDS011;22846;42.654;23.314;2023-03-01T08:12:33;10.20;;;5.47;;
31336;SDS011;22846;42.654;23.314;2023-03-01T08:14:59;7.75;;;5.28;;
31336;SDS011;22846;42.654;23.314;2023-03-01T08:17:24;11.40;;;5.32;;
31336;SDS011;22846;42.654;23.314;2023-03-01T08:19:50;11.70;;;5.55;;
31336;SDS011;22846;42.654;23.314;2023-03-01T08:22:15;14.35;;;5.60;;
31336;SDS011;22846;42.654;23.314;2023-03-01T08:24:41;9.32;;;4.95;;
31336;SDS011;22846;42.654;23.314;2023-03-01T08:27:06;7.53;;;4.70;;
31336;SDS011;22846;42.654;23.314;2023-03-01T08:29:32;10.10;;;5.03;;
31336;SDS011;22846;42.654;23.314;2023-03-01T08:31:58;9.35;;;4.63;;
31336;SDS011;22846;42.654;23.314;2023-03-01T08:34:23;11.60;;;4.45;;
31336;SDS011;22846;42.654;23.314;2023-03-01T08:36:49;8.20;;;4.50;;
31336;SDS011;22846;42.654;23.314;2023-03-01T08:39:17;6.68;;;4.47;;
31336;SDS011;22846;42.654;23.314;2023-03-01T08:41:44;8.60;;;4.25;;
31336;SDS011;22846;42.654;23.314;2023-03-01T08:44:11;9.75;;;4.38;;
31336;SDS011;22846;42.654;23.314;2023-03-01T08:46:39;7.47;;;4.13;;
31336;SDS011;22846;42.654;23.314;2023-03-01T08:49:07;6.07;;;4.15;;
31336;SDS011;22846;42.654;23.314;2023-03-01T08:51:38;9.73;;;3.80;;
31336;SDS011;22846;42.654;23.314;2023-03-01T08:54:04;9.40;;;3.95;;
31336;SDS011;22846;42.654;23.314;2023-03-01T08:56:31;5.90;;;3.65;;
31336;SDS011;22846;42.654;23.314;2023-03-01T08:58:57;9.25;;;4.07;;
31336;SDS011;22846;42.654;23.314;2023-03-01T09:01:22;7.53;;;3.58;;
31336;SDS011;22846;42.654;23.314;2023-03-01T09:03:48;7.10;;;3.75;;
31336;SDS011;22846;42.654;23.314;2023-03-01T09:06:14;8.18;;;4.05;;
31336;SDS011;22846;42.654;23.314;2023-03-01T09:08:41;5.82;;;3.60;;
31336;SDS011;22846;42.654;23.314;2023-03-01T09:11:09;8.68;;;3.80;;
31336;SDS011;22846;42.654;23.314;2023-03-01T09:13:36;7.38;;;3.50;;
31336;SDS011;22846;42.654;23.314;2023-03-01T09:16:02;6.72;;;3.53;;
31336;SDS011;22846;42.654;23.314;2023-03-01T09:18:29;8.98;;;3.28;;
31336;SDS011;22846;42.654;23.314;2023-03-01T09:23:48;13.43;;;3.40;;
31336;SDS011;22846;42.654;23.314;2023-03-01T09:26:16;6.30;;;3.35;;
31336;SDS011;22846;42.654;23.314;2023-03-01T09:28:47;10.07;;;3.13;;
31336;SDS011;22846;42.654;23.314;2023-03-01T09:31:14;8.55;;;3.45;;
31336;SDS011;22846;42.654;23.314;2023-03-01T09:33:41;6.70;;;3.40;;
31336;SDS011;22846;42.654;23.314;2023-03-01T09:36:09;9.80;;;4.10;;
31336;SDS011;22846;42.654;23.314;2023-03-01T09:38:37;12.88;;;3.47;;
31336;SDS011;22846;42.654;23.314;2023-03-01T09:41:08;6.63;;;3.58;;
31336;SDS011;22846;42.654;23.314;2023-03-01T09:43:52;6.60;;;3.20;;
31336;SDS011;22846;42.654;23.314;2023-03-01T09:46:24;5.95;;;3.20;;
31336;SDS011;22846;42.654;23.314;2023-03-01T09:48:53;6.70;;;3.38;;
31336;SDS011;22846;42.654;23.314;2023-03-01T09:51:40;8.77;;;3.30;;
31336;SDS011;22846;42.654;23.314;2023-03-01T09:54:08;6.60;;;3.15;;
31336;SDS011;22846;42.654;23.314;2023-03-01T09:56:43;6.25;;;3.22;;
31336;SDS011;22846;42.654;23.314;2023-03-01T10:02:23;5.38;;;3.13;;
31336;SDS011;22846;42.654;23.314;2023-03-01T10:10:46;3.97;;;2.60;;
31336;SDS011;22846;42.654;23.314;2023-03-01T10:15:50;4.88;;;3.00;;
31336;SDS011;22846;42.654;23.314;2023-03-01T10:18:30;5.53;;;2.45;;
31336;SDS011;22846;42.654;23.314;2023-03-01T10:20:59;10.68;;;2.80;;
31336;SDS011;22846;42.654;23.314;2023-03-01T10:23:27;6.45;;;3.08;;
31336;SDS011;22846;42.654;23.314;2023-03-01T10:28:44;8.43;;;2.80;;
31336;SDS011;22846;42.654;23.314;2023-03-01T10:31:20;8.20;;;3.03;;
31336;SDS011;22846;42.654;23.314;2023-03-01T10:33:53;6.85;;;2.85;;
31336;SDS011;22846;42.654;23.314;2023-03-01T10:36:20;5.45;;;2.78;;
31336;SDS011;22846;42.654;23.314;2023-03-01T10:38:53;5.00;;;2.58;;
31336;SDS011;22846;42.654;23.314;2023-03-01T10:41:22;12.02;;;2.53;;
31336;SDS011;22846;42.654;23.314;2023-03-01T10:43:52;6.47;;;2.40;;
31336;SDS011;22846;42.654;23.314;2023-03-01T10:46:30;6.70;;;2.50;;
31336;SDS011;22846;42.654;23.314;2023-03-01T10:49:10;4.90;;;2.60;;
31336;SDS011;22846;42.654;23.314;2023-03-01T10:51:49;4.35;;;2.33;;
31336;SDS011;22846;42.654;23.314;2023-03-01T10:56:56;5.03;;;2.28;;
31336;SDS011;22846;42.654;23.314;2023-03-01T10:59:32;6.47;;;2.30;;
31336;SDS011;22846;42.654;23.314;2023-03-01T11:02:02;6.00;;;2.78;;
31336;SDS011;22846;42.654;23.314;2023-03-01T11:04:28;7.20;;;2.25;;
31336;SDS011;22846;42.654;23.314;2023-03-01T11:07:02;6.03;;;2.30;;
31336;SDS011;22846;42.654;23.314;2023-03-01T11:09:32;4.28;;;2.40;;
31336;SDS011;22846;42.654;23.314;2023-03-01T11:12:08;5.38;;;2.30;;
31336;SDS011;22846;42.654;23.314;2023-03-01T11:14:45;9.68;;;6.57;;
31336;SDS011;22846;42.654;23.314;2023-03-01T11:17:31;46.20;;;26.75;;
31336;SDS011;22846;42.654;23.314;2023-03-01T11:22:37;11.95;;;5.65;;
31336;SDS011;22846;42.654;23.314;2023-03-01T11:25:13;7.35;;;4.90;;
31336;SDS011;22846;42.654;23.314;2023-03-01T11:27:40;7.80;;;4.60;;
31336;SDS011;22846;42.654;23.314;2023-03-01T11:35:41;7.15;;;4.15;;
31336;SDS011;22846;42.654;23.314;2023-03-01T11:38:22;6.82;;;4.05;;
31336;SDS011;22846;42.654;23.314;2023-03-01T11:43:23;6.90;;;3.83;;
31336;SDS011;22846;42.654;23.314;2023-03-01T11:54:21;8.07;;;3.80;;
31336;SDS011;22846;42.654;23.314;2023-03-01T11:57:00;9.70;;;4.25;;
31336;SDS011;22846;42.654;23.314;2023-03-01T12:07:46;5.97;;;3.80;;
31336;SDS011;22846;42.654;23.314;2023-03-01T12:22:28;5.55;;;3.40;;
31336;SDS011;22846;42.654;23.314;2023-03-01T12:25:25;8.93;;;3.40;;
31336;SDS011;22846;42.654;23.314;2023-03-01T12:49:44;4.20;;;2.92;;
31336;SDS011;22846;42.654;23.314;2023-03-01T12:54:53;8.63;;;3.25;;
31336;SDS011;22846;42.654;23.314;2023-03-01T12:57:26;5.70;;;3.08;;
31336;SDS011;22846;42.654;23.314;2023-03-01T13:05:24;6.05;;;2.83;;
31336;SDS011;22846;42.654;23.314;2023-03-01T13:10:42;5.60;;;2.70;;
31336;SDS011;22846;42.654;23.314;2023-03-01T13:13:23;5.18;;;2.90;;
31336;SDS011;22846;42.654;23.314;2023-03-01T13:15:50;7.05;;;3.35;;
31336;SDS011;22846;42.654;23.314;2023-03-01T13:20:47;5.07;;;3.78;;
31336;SDS011;22846;42.654;23.314;2023-03-01T13:33:40;4.50;;;3.60;;
31336;SDS011;22846;42.654;23.314;2023-03-01T13:36:08;8.57;;;3.22;;
31336;SDS011;22846;42.654;23.314;2023-03-01T13:41:02;5.28;;;3.38;;
31336;SDS011;22846;42.654;23.314;2023-03-01T13:43:32;5.05;;;3.22;;
31336;SDS011;22846;42.654;23.314;2023-03-01T13:46:02;7.53;;;3.45;;
31336;SDS011;22846;42.654;23.314;2023-03-01T13:48:40;5.57;;;3.67;;
31336;SDS011;22846;42.654;23.314;2023-03-01T13:51:09;4.57;;;3.40;;
31336;SDS011;22846;42.654;23.314;2023-03-01T13:53:39;5.13;;;3.42;;
31336;SDS011;22846;42.654;23.314;2023-03-01T13:56:12;6.72;;;3.60;;
31336;SDS011;22846;42.654;23.314;2023-03-01T13:58:59;6.50;;;3.28;;
31336;SDS011;22846;42.654;23.314;2023-03-01T14:01:30;5.13;;;3.40;;
31336;SDS011;22846;42.654;23.314;2023-03-01T14:03:58;6.30;;;3.70;;
31336;SDS011;22846;42.654;23.314;2023-03-01T14:06:25;5.93;;;3.67;;
31336;SDS011;22846;42.654;23.314;2023-03-01T14:21:29;4.40;;;3.25;;
31336;SDS011;22846;42.654;23.314;2023-03-01T14:23:55;4.97;;;3.50;;
31336;SDS011;22846;42.654;23.314;2023-03-01T14:26:21;7.13;;;4.00;;
31336;SDS011;22846;42.654;23.314;2023-03-01T14:28:48;5.25;;;3.70;;
31336;SDS011;22846;42.654;23.314;2023-03-01T14:34:18;5.53;;;3.25;;
31336;SDS011;22846;42.654;23.314;2023-03-01T14:36:49;9.45;;;3.47;;
31336;SDS011;22846;42.654;23.314;2023-03-01T14:39:19;5.32;;;3.50;;
31336;SDS011;22846;42.654;23.314;2023-03-01T14:41:48;5.57;;;3.67;;
31336;SDS011;22846;42.654;23.314;2023-03-01T14:44:19;9.82;;;3.25;;
31336;SDS011;22846;42.654;23.314;2023-03-01T14:46:51;7.47;;;3.40;;
31336;SDS011;22846;42.654;23.314;2023-03-01T14:49:20;4.95;;;3.17;;
31336;SDS011;22846;42.654;23.314;2023-03-01T14:51:55;7.65;;;2.95;;
31336;SDS011;22846;42.654;23.314;2023-03-01T14:54:27;5.47;;;3.35;;
31336;SDS011;22846;42.654;23.314;2023-03-01T14:56:58;6.00;;;3.10;;
31336;SDS011;22846;42.654;23.314;2023-03-01T14:59:24;7.55;;;3.78;;
31336;SDS011;22846;42.654;23.314;2023-03-01T15:01:50;12.65;;;4.53;;
31336;SDS011;22846;42.654;23.314;2023-03-01T15:04:18;6.47;;;4.10;;
31336;SDS011;22846;42.654;23.314;2023-03-01T15:06:45;5.70;;;3.55;;
31336;SDS011;22846;42.654;23.314;2023-03-01T15:09:14;8.32;;;3.72;;
31336;SDS011;22846;42.654;23.314;2023-03-01T15:11:41;6.05;;;3.42;;
31336;SDS011;22846;42.654;23.314;2023-03-01T15:20:04;6.55;;;3.63;;
31336;SDS011;22846;42.654;23.314;2023-03-01T15:22:32;6.97;;;3.72;;
31336;SDS011;22846;42.654;23.314;2023-03-01T15:24:58;12.52;;;3.10;;
31336;SDS011;22846;42.654;23.314;2023-03-01T15:27:24;7.43;;;3.40;;
31336;SDS011;22846;42.654;23.314;2023-03-01T15:29:53;11.07;;;3.50;;
31336;SDS011;22846;42.654;23.314;2023-03-01T15:34:54;8.50;;;3.33;;
31336;SDS011;22846;42.654;23.314;2023-03-01T15:40:02;4.28;;;3.20;;
31336;SDS011;22846;42.654;23.314;2023-03-01T15:45:10;4.85;;;3.10;;
31336;SDS011;22846;42.654;23.314;2023-03-01T15:47:47;6.40;;;3.38;;
31336;SDS011;22846;42.654;23.314;2023-03-01T15:50:22;4.45;;;2.85;;
31336;SDS011;22846;42.654;23.314;2023-03-01T15:52:48;11.70;;;3.50;;
31336;SDS011;22846;42.654;23.314;2023-03-01T15:55:16;13.98;;;3.72;;
31336;SDS011;22846;42.654;23.314;2023-03-01T15:57:47;13.68;;;3.53;;
31336;SDS011;22846;42.654;23.314;2023-03-01T16:00:13;9.40;;;3.70;;
31336;SDS011;22846;42.654;23.314;2023-03-01T16:02:40;10.85;;;3.65;;
31336;SDS011;22846;42.654;23.314;2023-03-01T16:07:44;11.10;;;3.30;;
31336;SDS011;22846;42.654;23.314;2023-03-01T16:10:09;11.68;;;3.45;;
31336;SDS011;22846;42.654;23.314;2023-03-01T16:12:35;7.40;;;3.50;;
31336;SDS011;22846;42.654;23.314;2023-03-01T16:15:00;9.10;;;3.50;;
31336;SDS011;22846;42.654;23.314;2023-03-01T16:17:26;9.55;;;3.60;;
31336;SDS011;22846;42.654;23.314;2023-03-01T16:19:51;6.32;;;3.20;;
31336;SDS011;22846;42.654;23.314;2023-03-01T16:22:16;13.52;;;3.90;;
31336;SDS011;22846;42.654;23.314;2023-03-01T16:24:42;12.18;;;4.18;;
31336;SDS011;22846;42.654;23.314;2023-03-01T16:27:07;11.25;;;3.30;;
31336;SDS011;22846;42.654;23.314;2023-03-01T16:29:33;8.25;;;3.20;;
31336;SDS011;22846;42.654;23.314;2023-03-01T16:32:01;9.93;;;3.70;;
31336;SDS011;22846;42.654;23.314;2023-03-01T16:34:27;7.45;;;3.22;;
31336;SDS011;22846;42.654;23.314;2023-03-01T16:36:53;7.85;;;3.50;;
31336;SDS011;22846;42.654;23.314;2023-03-01T16:39:18;27.80;;;19.50;;
31336;SDS011;22846;42.654;23.314;2023-03-01T16:41:44;44.65;;;32.20;;
31336;SDS011;22846;42.654;23.314;2023-03-01T16:44:09;34.85;;;25.42;;
31336;SDS011;22846;42.654;23.314;2023-03-01T16:46:34;31.23;;;21.90;;
31336;SDS011;22846;42.654;23.314;2023-03-01T16:49:00;26.00;;;19.98;;
31336;SDS011;22846;42.654;23.314;2023-03-01T16:51:26;16.92;;;11.25;;
31336;SDS011;22846;42.654;23.314;2023-03-01T16:53:52;14.18;;;8.98;;
31336;SDS011;22846;42.654;23.314;2023-03-01T16:56:17;21.65;;;12.02;;
31336;SDS011;22846;42.654;23.314;2023-03-01T16:58:43;16.30;;;11.27;;
31336;SDS011;22846;42.654;23.314;2023-03-01T17:06:09;14.05;;;10.90;;
31336;SDS011;22846;42.654;23.314;2023-03-01T17:08:36;11.63;;;9.20;;
31336;SDS011;22846;42.654;23.314;2023-03-01T17:11:05;17.10;;;9.73;;
31336;SDS011;22846;42.654;23.314;2023-03-01T17:13:34;13.95;;;9.30;;